Time;durP1;ratioP1;P1;durP2;ratioP2;P2;SDS_P1;SDS_P2;PMS_P1;PMS_P2;Temp;Humidity;BMP_temperature;BMP_pressure;BME280_temperature;BME280_humidity;BME280_pressure;Samples;Min_cycle;Max_cycle;Signal;HPM_P1;HPM_P2
2023/01/28 00:00:58;;;;;;;15.35;13.95;;;2.70;99.90;;;;;;7362988;19;20616;-60
2023/01/28 00:03:25;;;;;;;14.02;12.55;;;2.70;99.90;;;;;;7368144;19;20494;-61
2023/01/28 00:05:53;;;;;;;13.23;11.95;;;2.70;99.90;;;;;;7364366;19;20436;-61
2023/01/28 00:08:19;;;;;;;14.10;12.70;;;2.70;99.90;;;;;;7372710;19;20018;-60
2023/01/28 00:10:45;;;;;;;15.00;13.45;;;2.70;99.90;;;;;;7378633;19;20019;-61
2023/01/28 00:13:13;;;;;;;14.30;12.20;;;2.60;99.90;;;;;;7369591;19;20014;-64
2023/01/28 00:15:40;;;;;;;16.23;14.52;;;2.60;99.90;;;;;;7372179;19;20046;-65
2023/01/28 00:18:06;;;;;;;15.93;13.20;;;2.70;99.90;;;;;;7368766;19;20022;-64
2023/01/28 00:20:34;;;;;;;16.38;13.63;;;2.60;99.90;;;;;;7370315;19;20466;-65
2023/01/28 00:23:00;;;;;;;14.25;12.85;;;2.60;99.90;;;;;;7370514;19;20090;-64
2023/01/28 00:25:26;;;;;;;14.38;12.90;;;2.60;99.90;;;;;;7367025;19;20023;-65
2023/01/28 00:27:53;;;;;;;13.85;12.40;;;2.60;99.90;;;;;;7373991;19;20018;-61
2023/01/28 00:30:20;;;;;;;13.25;11.93;;;2.60;99.90;;;;;;7375748;19;20019;-61
2023/01/28 00:32:46;;;;;;;13.15;11.65;;;2.60;99.90;;;;;;7368294;19;20055;-65
2023/01/28 00:35:13;;;;;;;14.38;12.10;;;2.60;99.90;;;;;;7374434;19;20139;-64
2023/01/28 00:37:44;;;;;;;14.13;12.82;;;2.50;99.90;;;;;;7370473;19;21760;-64
2023/01/28 00:40:11;;;;;;;12.90;11.63;;;2.50;99.90;;;;;;7370413;19;20107;-60
2023/01/28 00:42:38;;;;;;;12.38;11.18;;;2.50;99.90;;;;;;7376319;19;20392;-64
2023/01/28 00:45:04;;;;;;;13.32;12.13;;;2.50;99.90;;;;;;7371275;19;20019;-60
2023/01/28 00:47:34;;;;;;;12.38;11.27;;;2.50;99.90;;;;;;7373340;19;20014;-60
2023/01/28 00:50:00;;;;;;;12.30;11.20;;;2.40;99.90;;;;;;7374241;19;20047;-61
2023/01/28 00:52:27;;;;;;;13.20;11.80;;;2.40;99.90;;;;;;7373520;19;20023;-65
2023/01/28 00:54:54;;;;;;;12.73;11.55;;;2.40;99.90;;;;;;7359495;19;20035;-64
2023/01/28 00:57:20;;;;;;;14.13;12.73;;;2.40;99.90;;;;;;7369458;19;20568;-61
2023/01/28 00:59:47;;;;;;;13.40;12.10;;;2.40;99.90;;;;;;7375512;19;20011;-60
2023/01/28 01:02:13;;;;;;;13.70;12.40;;;2.40;99.90;;;;;;7376282;19;20837;-64
2023/01/28 01:04:53;;;;;;;14.50;13.10;;;2.40;99.90;;;;;;7377440;19;20022;-64
2023/01/28 01:07:38;;;;;;;14.38;12.95;;;2.40;99.90;;;;;;7382850;19;20484;-61
2023/01/28 01:10:04;;;;;;;13.15;11.55;;;2.40;99.90;;;;;;7383405;19;20563;-61
2023/01/28 01:12:31;;;;;;;15.18;12.55;;;2.40;99.90;;;;;;7380008;19;20018;-65
2023/01/28 01:14:57;;;;;;;14.77;13.30;;;2.40;99.90;;;;;;7373511;19;20830;-64
2023/01/28 01:17:24;;;;;;;14.32;12.90;;;2.40;99.90;;;;;;7372916;19;20023;-61
2023/01/28 01:19:51;;;;;;;12.98;11.77;;;2.40;99.90;;;;;;7366212;19;20023;-68
2023/01/28 01:22:17;;;;;;;15.45;13.40;;;2.40;99.90;;;;;;7374521;19;20014;-61
2023/01/28 01:24:44;;;;;;;13.68;12.40;;;2.30;99.90;;;;;;7379122;19;20524;-60
2023/01/28 01:27:10;;;;;;;10.65;9.73;;;2.30;99.90;;;;;;7382675;19;20110;-61
2023/01/28 01:29:38;;;;;;;12.18;11.07;;;2.40;99.90;;;;;;7376354;19;20037;-64
2023/01/28 01:32:06;;;;;;;12.13;11.02;;;2.30;99.90;;;;;;7375615;19;20016;-64
2023/01/28 01:34:33;;;;;;;13.27;12.07;;;2.30;99.90;;;;;;7377838;19;20364;-61
2023/01/28 01:36:59;;;;;;;12.88;11.57;;;2.30;99.90;;;;;;7372548;19;20042;-60
2023/01/28 01:39:25;;;;;;;13.20;11.75;;;2.30;99.90;;;;;;7373221;19;20018;-61
2023/01/28 01:41:52;;;;;;;12.40;11.15;;;2.20;99.90;;;;;;7373423;19;20074;-60
2023/01/28 01:44:56;;;;;;;14.25;12.95;;;2.20;99.90;;;;;;7366161;19;20051;-60
2023/01/28 01:47:57;;;;;;;14.15;12.75;;;2.30;99.90;;;;;;7376793;19;20014;-61
2023/01/28 01:50:29;;;;;;;13.77;12.38;;;2.30;99.90;;;;;;7379712;19;20108;-61
2023/01/28 01:52:59;;;;;;;13.88;12.50;;;2.20;99.90;;;;;;7371300;19;20037;-65
2023/01/28 01:55:30;;;;;;;13.55;12.35;;;2.20;99.90;;;;;;7370608;19;20047;-65
2023/01/28 01:58:00;;;;;;;14.52;13.13;;;2.20;99.90;;;;;;7376347;19;20548;-65
2023/01/28 02:00:27;;;;;;;13.38;12.02;;;2.20;99.90;;;;;;7373610;19;20443;-65
2023/01/28 02:02:53;;;;;;;13.65;11.45;;;2.20;99.90;;;;;;7375013;19;20029;-64
2023/01/28 02:05:22;;;;;;;14.68;13.32;;;2.20;99.90;;;;;;7373445;19;20482;-61
2023/01/28 02:07:54;;;;;;;14.32;13.02;;;2.20;99.90;;;;;;7380939;19;20536;-61
2023/01/28 02:10:21;;;;;;;12.50;11.30;;;2.20;99.90;;;;;;7384300;19;20022;-61
2023/01/28 02:12:56;;;;;;;13.98;12.68;;;2.20;99.90;;;;;;7373472;19;20678;-61
2023/01/28 02:15:28;;;;;;;14.20;12.80;;;2.20;99.90;;;;;;7367865;19;20047;-61
2023/01/28 02:17:56;;;;;;;14.32;13.02;;;2.20;99.90;;;;;;7367127;19;20035;-60
2023/01/28 02:20:38;;;;;;;14.13;12.82;;;2.20;99.90;;;;;;7373093;19;20106;-60
2023/01/28 02:23:32;;;;;;;13.48;12.27;;;2.20;99.90;;;;;;7371692;19;20592;-65
2023/01/28 02:26:04;;;;;;;15.50;14.13;;;2.20;99.90;;;;;;7376240;19;20018;-64
2023/01/28 02:28:38;;;;;;;13.68;12.48;;;2.20;99.90;;;;;;7369564;19;20405;-65
2023/01/28 02:31:17;;;;;;;14.32;12.93;;;2.10;99.90;;;;;;7374112;19;20324;-64
2023/01/28 02:34:07;;;;;;;14.45;13.13;;;2.10;99.90;;;;;;7374042;19;20023;-65
2023/01/28 02:36:56;;;;;;;13.35;12.02;;;2.20;99.90;;;;;;7373396;19;20584;-65
2023/01/28 02:39:32;;;;;;;14.65;13.25;;;2.20;99.90;;;;;;7367689;19;20090;-64
2023/01/28 02:42:12;;;;;;;13.85;12.55;;;2.20;99.90;;;;;;7372711;19;20544;-65
2023/01/28 02:44:39;;;;;;;13.23;12.02;;;2.10;99.90;;;;;;7376431;19;20018;-61
2023/01/28 02:50:01;;;;;;;13.43;12.20;;;2.20;99.90;;;;;;7376304;19;20029;-61
2023/01/28 02:55:52;;;;;;;;;;;2.20;99.90;;;;;;7372013;19;20033;-61
2023/01/28 02:58:27;;;;;;;12.65;11.55;;;2.20;99.90;;;;;;7369107;19;20469;-60
2023/01/28 03:01:18;;;;;;;13.30;12.02;;;2.20;99.90;;;;;;7380006;19;20085;-61
2023/01/28 03:04:02;;;;;;;12.73;11.52;;;2.20;99.90;;;;;;7376348;19;20014;-65
2023/01/28 03:06:47;;;;;;;13.35;12.07;;;2.20;99.90;;;;;;7372058;19;20018;-65
2023/01/28 03:09:23;;;;;;;12.85;11.65;;;2.20;99.90;;;;;;7373883;19;20595;-65
2023/01/28 03:38:47;;;;;;;12.80;11.55;;;2.10;99.90;;;;;;7367932;19;20018;-61
2023/01/28 03:41:23;;;;;;;13.23;12.02;;;2.10;99.90;;;;;;7367491;19;20489;-60
2023/01/28 03:43:50;;;;;;;13.75;12.45;;;2.20;99.90;;;;;;7363464;19;20022;-61
2023/01/28 03:46:17;;;;;;;13.05;11.85;;;2.20;99.90;;;;;;7373367;19;20396;-61
2023/01/28 03:48:45;;;;;;;13.73;12.43;;;2.20;99.90;;;;;;7378749;19;20034;-61
2023/01/28 03:51:14;;;;;;;14.60;13.10;;;2.10;99.90;;;;;;7377184;19;20580;-61
2023/01/28 03:53:41;;;;;;;14.00;12.70;;;2.10;99.90;;;;;;7376540;19;20022;-60
2023/01/28 03:56:07;;;;;;;13.55;12.23;;;2.10;99.90;;;;;;7373367;19;20021;-65
2023/01/28 03:58:52;;;;;;;14.65;13.20;;;2.10;99.90;;;;;;7370625;19;20022;-65
2023/01/28 04:01:20;;;;;;;13.65;12.25;;;2.20;99.90;;;;;;7369130;19;20477;-65
2023/01/28 04:03:46;;;;;;;13.93;12.52;;;2.10;99.90;;;;;;7368382;19;20019;-65
2023/01/28 04:06:16;;;;;;;14.18;12.77;;;2.10;99.90;;;;;;7368234;19;20566;-64
2023/01/28 04:08:55;;;;;;;14.98;13.48;;;2.20;99.90;;;;;;7376604;19;20410;-60
2023/01/28 04:11:32;;;;;;;13.38;12.07;;;2.20;99.90;;;;;;7377525;19;20021;-61
2023/01/28 04:14:01;;;;;;;13.77;12.38;;;2.10;99.90;;;;;;7375766;19;20032;-61
2023/01/28 04:16:39;;;;;;;15.27;13.70;;;2.10;99.90;;;;;;7378970;19;20500;-61
2023/01/28 04:19:09;;;;;;;14.55;13.05;;;2.20;99.90;;;;;;7377297;19;20029;-61
2023/01/28 04:21:36;;;;;;;14.48;13.02;;;2.10;99.90;;;;;;7378625;19;20505;-61
2023/01/28 04:24:04;;;;;;;14.65;12.95;;;2.10;99.90;;;;;;7361471;19;20063;-65
2023/01/28 04:26:31;;;;;;;13.63;12.23;;;2.10;99.90;;;;;;7363612;19;20494;-60
2023/01/28 04:28:57;;;;;;;13.18;11.77;;;2.10;99.90;;;;;;7366152;19;20091;-60
2023/01/28 04:31:24;;;;;;;14.02;12.52;;;2.10;99.90;;;;;;7373215;19;20022;-61
2023/01/28 04:34:03;;;;;;;13.82;12.43;;;2.10;99.90;;;;;;7370558;19;20022;-64
2023/01/28 04:36:57;;;;;;;13.25;11.85;;;2.10;99.90;;;;;;7373901;19;20701;-64
2023/01/28 04:39:41;;;;;;;13.52;12.23;;;2.10;99.90;;;;;;7382108;19;20025;-60
2023/01/28 04:42:20;;;;;;;12.65;11.35;;;2.10;99.90;;;;;;7383682;19;20456;-61
2023/01/28 04:44:56;;;;;;;12.52;11.27;;;2.10;99.90;;;;;;7383006;19;20014;-61
2023/01/28 04:47:55;;;;;;;13.43;12.05;;;2.10;99.90;;;;;;7381170;19;20022;-60
2023/01/28 04:50:44;;;;;;;13.32;11.57;;;2.10;99.90;;;;;;7383002;19;20025;-64
2023/01/28 04:53:34;;;;;;;13.02;11.73;;;2.10;99.90;;;;;;7382517;19;20453;-60
2023/01/28 04:56:06;;;;;;;14.20;11.70;;;2.10;99.90;;;;;;7382827;19;20086;-61
2023/01/28 04:58:34;;;;;;;12.88;11.60;;;2.10;99.90;;;;;;7379856;19;20014;-61
2023/01/28 05:01:05;;;;;;;13.75;12.35;;;2.10;99.90;;;;;;7380068;19;20408;-60
2023/01/28 05:03:32;;;;;;;14.45;12.95;;;2.10;99.90;;;;;;7376603;19;20022;-61
2023/01/28 05:05:59;;;;;;;13.32;11.93;;;2.10;99.90;;;;;;7372330;19;20033;-65
2023/01/28 05:08:55;;;;;;;13.52;12.13;;;2.10;99.90;;;;;;7380593;19;20010;-61
2023/01/28 05:11:23;;;;;;;13.57;12.20;;;2.10;99.90;;;;;;7383773;19;20097;-60
2023/01/28 05:13:54;;;;;;;13.38;11.98;;;2.00;99.90;;;;;;7384722;19;20018;-60
2023/01/28 05:16:20;;;;;;;14.55;13.02;;;2.10;99.90;;;;;;7375406;19;20074;-64
2023/01/28 05:18:46;;;;;;;14.07;12.40;;;2.00;99.90;;;;;;7374933;19;20066;-65
2023/01/28 05:21:16;;;;;;;14.35;12.85;;;2.10;99.90;;;;;;7375479;19;20021;-66
2023/01/28 05:23:45;;;;;;;14.65;13.15;;;2.00;99.90;;;;;;7373383;19;20498;-65
2023/01/28 05:26:12;;;;;;;14.57;13.15;;;2.00;99.90;;;;;;7370262;19;20014;-65
2023/01/28 05:28:38;;;;;;;14.15;12.65;;;2.10;99.90;;;;;;7369091;19;20023;-65
2023/01/28 05:31:05;;;;;;;13.38;11.13;;;2.00;99.90;;;;;;7377053;19;20511;-60
2023/01/28 05:33:32;;;;;;;13.65;12.25;;;2.00;99.90;;;;;;7374555;19;20018;-61
2023/01/28 05:35:59;;;;;;;14.05;12.65;;;2.00;99.90;;;;;;7371882;19;20578;-60
2023/01/28 05:38:25;;;;;;;14.00;11.68;;;2.00;99.90;;;;;;7372912;19;20034;-61
2023/01/28 05:40:52;;;;;;;12.93;11.02;;;2.00;99.90;;;;;;7367283;19;20019;-61
2023/01/28 05:43:18;;;;;;;14.70;12.82;;;2.00;99.90;;;;;;7370543;19;20047;-61
2023/01/28 05:45:51;;;;;;;14.57;12.50;;;2.00;99.90;;;;;;7376187;19;20022;-64
2023/01/28 05:48:30;;;;;;;14.20;12.48;;;2.00;99.90;;;;;;7373985;19;20484;-61
2023/01/28 05:51:11;;;;;;;14.23;11.88;;;1.90;99.90;;;;;;7374020;19;20596;-61
2023/01/28 05:53:41;;;;;;;14.40;12.90;;;1.90;99.90;;;;;;7374343;19;20457;-61
2023/01/28 05:56:07;;;;;;;14.77;12.45;;;1.90;99.90;;;;;;7372605;19;20354;-61
2023/01/28 05:58:35;;;;;;;13.23;11.93;;;1.90;99.90;;;;;;7371995;19;20018;-60
2023/01/28 06:01:03;;;;;;;14.30;12.52;;;1.90;99.90;;;;;;7373294;19;20504;-61
2023/01/28 06:03:38;;;;;;;13.10;11.50;;;1.90;99.90;;;;;;7370568;19;20037;-61
2023/01/28 06:06:05;;;;;;;14.23;12.35;;;1.90;99.90;;;;;;7373996;19;20094;-60
2023/01/28 06:08:31;;;;;;;15.57;13.05;;;1.90;99.90;;;;;;7372476;19;20549;-61
2023/01/28 06:10:59;;;;;;;13.82;12.35;;;1.90;99.90;;;;;;7368902;19;20024;-61
2023/01/28 06:13:25;;;;;;;15.02;12.95;;;1.90;99.90;;;;;;7368212;19;20809;-60
2023/01/28 06:16:04;;;;;;;13.85;12.18;;;1.90;99.90;;;;;;7370235;19;20026;-61
2023/01/28 06:18:53;;;;;;;13.68;11.50;;;1.90;99.90;;;;;;7369389;19;20027;-60
2023/01/28 06:21:19;;;;;;;14.57;12.70;;;1.80;99.90;;;;;;7372572;19;20372;-61
2023/01/28 06:23:45;;;;;;;14.07;12.52;;;1.90;99.90;;;;;;7368677;19;20014;-61
2023/01/28 06:26:12;;;;;;;16.70;13.27;;;1.90;99.90;;;;;;7368728;19;20022;-61
2023/01/28 06:28:43;;;;;;;15.55;13.00;;;1.80;99.90;;;;;;7371882;19;20023;-61
2023/01/28 06:31:09;;;;;;;14.30;12.68;;;1.90;99.90;;;;;;7369347;19;20583;-61
2023/01/28 06:33:36;;;;;;;14.70;13.13;;;1.90;99.90;;;;;;7367148;19;20022;-60
2023/01/28 06:36:03;;;;;;;14.45;12.45;;;1.90;99.90;;;;;;7369648;19;20014;-61
2023/01/28 06:38:30;;;;;;;16.65;13.10;;;1.90;99.90;;;;;;7370989;19;20022;-61
2023/01/28 06:40:57;;;;;;;14.93;13.32;;;1.90;99.90;;;;;;7370172;19;20019;-61
2023/01/28 06:43:27;;;;;;;16.60;13.80;;;1.90;99.90;;;;;;7365504;19;20010;-60
2023/01/28 06:45:54;;;;;;;14.13;12.68;;;1.90;99.90;;;;;;7368664;19;20010;-61
2023/01/28 06:48:20;;;;;;;13.75;12.23;;;1.90;99.90;;;;;;7363717;19;20603;-61
2023/01/28 06:50:48;;;;;;;13.82;11.65;;;1.80;99.90;;;;;;7365350;19;20020;-61
2023/01/28 06:53:15;;;;;;;12.95;11.55;;;1.90;99.90;;;;;;7369262;19;20018;-61
2023/01/28 06:55:42;;;;;;;14.10;12.60;;;1.90;99.90;;;;;;7369834;19;20029;-67
2023/01/28 06:58:09;;;;;;;15.23;13.05;;;1.90;99.90;;;;;;7361811;19;20019;-61
2023/01/28 07:00:36;;;;;;;14.95;13.25;;;1.90;99.90;;;;;;7365215;19;20026;-61
2023/01/28 07:03:08;;;;;;;13.82;12.13;;;1.80;99.90;;;;;;7366800;19;20018;-61
2023/01/28 07:05:35;;;;;;;14.88;12.23;;;1.80;99.90;;;;;;7368128;19;20018;-65
2023/01/28 07:08:01;;;;;;;13.10;11.80;;;1.80;99.90;;;;;;7358687;19;20022;-66
2023/01/28 07:10:28;;;;;;;13.00;11.68;;;1.90;99.90;;;;;;7361213;19;20083;-66
2023/01/28 07:12:56;;;;;;;15.15;13.48;;;1.80;99.90;;;;;;7359510;19;20113;-61
2023/01/28 07:15:22;;;;;;;14.52;12.70;;;1.80;99.90;;;;;;7365502;19;20624;-65
2023/01/28 07:17:48;;;;;;;14.77;12.68;;;1.80;99.90;;;;;;7359824;19;20026;-65
2023/01/28 07:20:16;;;;;;;14.68;12.70;;;1.80;99.90;;;;;;7367010;19;20046;-60
2023/01/28 07:22:43;;;;;;;15.55;12.38;;;1.80;99.90;;;;;;7367532;19;20014;-61
2023/01/28 07:25:11;;;;;;;15.38;13.07;;;1.90;99.90;;;;;;7362534;19;20018;-65
2023/01/28 07:27:38;;;;;;;16.08;14.43;;;1.90;99.90;;;;;;7359882;19;20098;-66
2023/01/28 07:30:05;;;;;;;16.15;14.05;;;1.80;99.90;;;;;;7354348;19;20460;-66
2023/01/28 07:32:31;;;;;;;16.42;13.68;;;1.80;99.90;;;;;;7362598;19;20478;-65
2023/01/28 07:34:58;;;;;;;17.10;15.30;;;1.90;99.90;;;;;;7359964;19;20595;-65
2023/01/28 07:37:24;;;;;;;17.50;15.70;;;1.80;99.90;;;;;;7359518;19;21256;-66
2023/01/28 07:39:51;;;;;;;16.60;14.90;;;1.80;99.90;;;;;;7358188;19;20676;-66
2023/01/28 07:42:17;;;;;;;17.42;15.65;;;1.80;99.90;;;;;;7355186;19;20025;-68
2023/01/28 07:44:46;;;;;;;17.40;15.55;;;1.90;99.90;;;;;;7361271;19;20402;-61
2023/01/28 07:47:12;;;;;;;18.45;16.05;;;1.80;99.90;;;;;;7364407;19;20620;-62
2023/01/28 07:49:39;;;;;;;19.30;16.48;;;1.80;99.90;;;;;;7367866;19;20023;-61
2023/01/28 07:52:06;;;;;;;61.30;42.95;;;1.90;99.90;;;;;;7362543;19;20384;-61
2023/01/28 07:54:32;;;;;;;18.33;16.33;;;1.90;99.90;;;;;;7367875;19;20010;-61
2023/01/28 07:56:58;;;;;;;16.88;15.07;;;1.90;99.90;;;;;;7364388;19;20651;-61
2023/01/28 07:59:25;;;;;;;17.27;14.80;;;1.90;99.90;;;;;;7358422;19;20669;-62
2023/01/28 08:01:53;;;;;;;16.00;13.50;;;1.90;99.90;;;;;;7355381;19;20116;-60
2023/01/28 08:04:19;;;;;;;18.55;14.50;;;1.80;99.90;;;;;;7348176;19;21248;-60
2023/01/28 08:06:46;;;;;;;17.45;15.02;;;1.80;99.90;;;;;;7353671;19;20022;-61
2023/01/28 08:09:12;;;;;;;16.67;14.45;;;1.80;99.90;;;;;;7350222;19;20042;-63
2023/01/28 08:11:39;;;;;;;16.52;14.73;;;1.80;99.90;;;;;;7352211;19;20041;-59
2023/01/28 08:14:07;;;;;;;18.42;14.32;;;1.80;99.90;;;;;;7351597;19;21411;-58
2023/01/28 08:16:33;;;;;;;17.30;15.52;;;1.70;99.90;;;;;;7356228;19;20479;-55
2023/01/28 08:18:59;;;;;;;15.68;13.68;;;1.70;99.90;;;;;;7353077;19;20074;-55
2023/01/28 08:21:27;;;;;;;16.88;15.07;;;1.70;99.90;;;;;;7350010;19;20023;-59
2023/01/28 08:23:55;;;;;;;15.88;13.73;;;1.90;99.90;;;;;;7351427;19;20476;-64
2023/01/28 08:26:23;;;;;;;16.52;14.82;;;2.10;99.90;;;;;;7355876;19;20020;-65
2023/01/28 08:28:49;;;;;;;16.83;14.48;;;2.20;99.90;;;;;;7356040;19;20018;-60
2023/01/28 08:31:16;;;;;;;15.00;13.27;;;2.30;99.90;;;;;;7355126;19;20029;-63
2023/01/28 08:33:44;;;;;;;15.75;14.05;;;2.40;99.90;;;;;;7356691;19;20086;-63
2023/01/28 08:36:15;;;;;;;18.92;13.82;;;2.40;99.90;;;;;;7355423;19;20577;-63
2023/01/28 08:38:42;;;;;;;14.75;13.07;;;2.40;99.90;;;;;;7354588;19;20014;-64
2023/01/28 08:41:08;;;;;;;16.80;13.88;;;2.40;99.90;;;;;;7357592;19;20049;-60
2023/01/28 08:43:35;;;;;;;17.48;15.13;;;2.40;99.90;;;;;;7360638;19;20011;-61
2023/01/28 08:46:03;;;;;;;15.48;13.88;;;2.60;99.90;;;;;;7359456;19;20030;-58
2023/01/28 08:48:30;;;;;;;15.32;12.70;;;2.80;99.90;;;;;;7356666;19;20023;-58
2023/01/28 08:50:58;;;;;;;13.90;12.50;;;3.10;99.90;;;;;;7357117;19;20018;-60
2023/01/28 08:53:25;;;;;;;14.02;12.52;;;3.80;99.90;;;;;;7353535;19;20969;-61
2023/01/28 08:55:53;;;;;;;15.25;13.65;;;4.70;99.90;;;;;;7359766;19;20045;-60
2023/01/28 08:58:20;;;;;;;14.25;12.80;;;5.50;99.90;;;;;;7356769;19;20018;-60
2023/01/28 09:00:47;;;;;;;13.25;11.93;;;6.30;99.90;;;;;;7353541;19;20638;-60
2023/01/28 09:03:13;;;;;;;13.38;12.13;;;6.60;99.90;;;;;;7354570;19;20027;-60
2023/01/28 09:05:41;;;;;;;13.15;11.95;;;6.90;99.90;;;;;;7357842;19;20026;-60
2023/01/28 09:08:10;;;;;;;11.98;10.77;;;6.70;99.90;;;;;;7357311;19;20498;-60
2023/01/28 09:10:37;;;;;;;13.07;11.60;;;6.90;99.90;;;;;;7361177;19;20018;-60
2023/01/28 09:13:09;;;;;;;12.05;10.85;;;6.50;99.90;;;;;;7355919;19;20749;-60
2023/01/28 09:15:37;;;;;;;12.05;10.95;;;6.60;99.90;;;;;;7352815;19;20022;-61
2023/01/28 09:18:04;;;;;;;13.05;11.82;;;6.30;99.90;;;;;;7356913;19;20018;-61
2023/01/28 09:20:33;;;;;;;12.20;11.00;;;6.20;99.90;;;;;;7364173;19;20101;-61
2023/01/28 09:23:00;;;;;;;11.95;10.73;;;6.10;99.90;;;;;;7364767;19;20082;-60
2023/01/28 09:25:27;;;;;;;10.73;9.63;;;6.20;99.90;;;;;;7364626;19;20646;-60
2023/01/28 09:27:53;;;;;;;11.45;10.35;;;6.80;99.90;;;;;;7369335;19;20449;-60
2023/01/28 09:30:20;;;;;;;10.93;9.82;;;7.20;99.90;;;;;;7360920;19;20505;-58
2023/01/28 09:32:50;;;;;;;18.52;10.35;;;7.90;99.90;;;;;;7364322;19;20021;-61
2023/01/28 09:35:29;;;;;;;14.65;9.60;;;7.40;99.90;;;;;;7361612;19;20105;-85
2023/01/28 09:38:12;;;;;;;10.25;9.25;;;6.90;99.90;;;;;;7366298;19;20018;-84
2023/01/28 09:40:59;;;;;;;13.00;10.57;;;5.90;99.90;;;;;;7364251;19;20078;-85
2023/01/28 09:43:50;;;;;;;20.77;11.52;;;5.50;99.90;;;;;;7366855;19;20021;-85
2023/01/28 09:46:47;;;;;;;10.80;9.65;;;5.30;99.90;;;;;;7359987;19;20121;-86
2023/01/28 09:50:03;;;;;;;12.95;10.00;;;5.20;99.90;;;;;;7361726;19;20018;-86
2023/01/28 09:53:50;;;;;;;32.78;12.40;;;5.10;99.90;;;;;;7357832;19;20963;-84
2023/01/28 09:57:04;;;;;;;11.07;9.93;;;5.20;99.90;;;;;;7361065;19;20155;-85
2023/01/28 09:59:39;;;;;;;9.50;8.57;;;5.60;99.90;;;;;;7363434;19;20019;-85
2023/01/28 10:06:14;;;;;;;9.40;8.40;;;7.10;99.90;;;;;;7357157;19;20032;-80
2023/01/28 10:09:12;;;;;;;11.45;10.35;;;8.00;99.90;;;;;;7364579;19;20320;-85
2023/01/28 10:15:42;;;;;;;12.57;9.88;;;8.80;99.90;;;;;;7364923;19;20051;-82
2023/01/28 10:18:38;;;;;;;11.73;9.57;;;9.60;99.90;;;;;;7369815;19;20835;-88
2023/01/28 10:21:55;;;;;;;9.57;8.65;;;9.80;99.90;;;;;;7368242;19;20029;-90
2023/01/28 10:24:39;;;;;;;14.18;10.60;;;10.00;99.90;;;;;;7358211;19;20075;-86
2023/01/28 10:27:24;;;;;;;8.57;7.72;;;10.30;99.90;;;;;;7363345;19;20033;-86
2023/01/28 10:29:51;;;;;;;8.27;7.43;;;10.40;99.90;;;;;;7368501;19;20045;-85
2023/01/28 10:32:35;;;;;;;12.15;7.63;;;10.60;99.90;;;;;;7362682;19;20022;-87
2023/01/28 10:35:02;;;;;;;9.77;7.50;;;10.50;99.90;;;;;;7365397;19;20022;-86
2023/01/28 10:37:37;;;;;;;8.63;7.80;;;10.50;99.90;;;;;;7364078;19;20038;-87
2023/01/28 10:40:13;;;;;;;6.75;6.03;;;10.30;99.90;;;;;;7368067;19;20131;-88
2023/01/28 10:42:48;;;;;;;7.70;6.95;;;10.50;99.90;;;;;;7367456;19;20018;-89
2023/01/28 10:46:10;;;;;;;9.38;6.85;;;10.60;99.90;;;;;;7368399;19;20018;-88
2023/01/28 10:49:01;;;;;;;8.45;6.82;;;10.50;99.90;;;;;;7367923;19;20374;-88
2023/01/28 10:51:50;;;;;;;7.10;6.40;;;11.00;99.90;;;;;;7369574;19;20010;-88
2023/01/28 10:55:13;;;;;;;7.70;7.00;;;10.70;99.90;;;;;;7368295;19;20018;-87
2023/01/28 10:57:50;;;;;;;7.63;6.72;;;10.90;99.90;;;;;;7367719;19;20018;-88
2023/01/28 11:00:29;;;;;;;10.27;8.50;;;11.40;99.90;;;;;;7367127;19;20031;-87
2023/01/28 11:03:00;;;;;;;8.05;7.25;;;11.50;99.90;;;;;;7365996;19;20102;-87
2023/01/28 11:05:29;;;;;;;6.75;6.03;;;11.40;99.90;;;;;;7367372;19;20043;-87
2023/01/28 11:08:25;;;;;;;9.52;6.65;;;11.90;99.90;;;;;;7362638;19;21071;-87
2023/01/28 11:11:00;;;;;;;7.35;6.57;;;11.50;97.50;;;;;;7367309;19;20022;-86
2023/01/28 11:13:49;;;;;;;8.65;7.72;;;11.20;99.90;;;;;;7363993;19;20411;-86
2023/01/28 11:16:20;;;;;;;11.30;10.23;;;10.00;99.90;;;;;;7368053;19;20043;-86
2023/01/28 11:19:03;;;;;;;11.35;10.23;;;8.50;99.90;;;;;;7366699;19;20480;-86
2023/01/28 11:21:34;;;;;;;11.45;9.25;;;8.20;99.90;;;;;;7369458;19;20922;-86
2023/01/28 11:24:09;;;;;;;9.43;8.43;;;8.80;99.90;;;;;;7364819;19;20086;-86
2023/01/28 11:26:44;;;;;;;11.45;10.35;;;9.60;99.90;;;;;;7363357;19;20051;-86
2023/01/28 11:29:35;;;;;;;9.82;8.70;;;10.00;99.90;;;;;;7365382;19;20026;-87
2023/01/28 11:32:02;;;;;;;10.52;8.00;;;9.40;99.90;;;;;;7361764;19;20091;-87
2023/01/28 11:39:44;;;;;;;9.88;7.80;;;9.00;99.90;;;;;;7364769;19;20035;-87
2023/01/28 11:42:42;;;;;;;;;;;;;;;;;;;;;
2023/01/28 11:45:56;;;;;;;8.80;7.40;;;11.70;99.90;;;;;;7356902;19;20022;-87
2023/01/28 11:48:45;;;;;;;11.77;7.20;;;11.70;99.40;;;;;;7363360;19;20014;-86
2023/01/28 11:51:55;;;;;;;8.50;6.95;;;12.10;84.40;;;;;;7368724;19;20018;-86
2023/01/28 11:55:30;;;;;;;8.50;7.70;;;11.60;94.10;;;;;;7364378;19;20033;-87
2023/01/28 11:58:11;;;;;;;8.20;7.30;;;11.50;95.50;;;;;;7360375;19;20981;-88
2023/01/28 12:01:05;;;;;;;9.57;8.00;;;11.00;99.90;;;;;;7364568;19;20019;-86
2023/01/28 12:04:18;;;;;;;8.50;7.60;;;10.30;99.90;;;;;;7362384;19;20015;-87
2023/01/28 12:07:19;;;;;;;9.10;7.78;;;9.70;99.90;;;;;;7365617;19;20029;-87
2023/01/28 12:09:58;;;;;;;8.75;7.93;;;9.30;99.90;;;;;;7363767;19;20712;-85
2023/01/28 12:12:57;;;;;;;9.02;7.45;;;8.80;99.90;;;;;;7361605;19;20018;-87
2023/01/28 12:15:50;;;;;;;8.50;7.53;;;8.70;99.90;;;;;;7364997;19;20033;-86
2023/01/28 12:19:00;;;;;;;9.52;7.68;;;8.70;99.90;;;;;;7363285;19;20043;-86
2023/01/28 12:22:35;;;;;;;10.77;8.20;;;8.30;99.90;;;;;;7361266;19;20030;-87
2023/01/28 12:25:10;;;;;;;9.45;8.48;;;8.00;99.90;;;;;;7355324;19;20026;-86
2023/01/28 12:28:14;;;;;;;10.82;8.98;;;8.00;99.90;;;;;;7360592;19;20036;-87
2023/01/28 12:31:12;;;;;;;10.70;8.77;;;7.60;99.90;;;;;;7352729;19;20029;-86
2023/01/28 12:34:31;;;;;;;9.20;8.10;;;7.30;99.90;;;;;;7357555;19;20039;-86
2023/01/28 12:37:18;;;;;;;9.77;8.05;;;7.20;99.90;;;;;;7361412;19;20027;-87
2023/01/28 12:40:18;;;;;;;10.30;8.18;;;7.10;99.90;;;;;;7362248;19;20015;-86
2023/01/28 12:42:56;;;;;;;14.52;8.70;;;7.10;99.90;;;;;;7358936;19;20022;-86
2023/01/28 12:45:37;;;;;;;10.68;8.30;;;7.00;99.90;;;;;;7354824;19;20023;-85
2023/01/28 12:48:18;;;;;;;14.23;9.30;;;6.90;99.90;;;;;;7359388;19;20479;-86
2023/01/28 12:51:23;;;;;;;10.85;8.80;;;6.90;99.90;;;;;;7354687;19;20022;-87
2023/01/28 12:54:19;;;;;;;10.93;7.57;;;6.90;99.90;;;;;;7362139;19;20014;-86
2023/01/28 12:56:55;;;;;;;10.70;8.77;;;6.80;99.90;;;;;;7366906;19;20105;-88
2023/01/28 12:59:47;;;;;;;10.23;8.38;;;6.70;99.90;;;;;;7369129;19;20057;-87
2023/01/28 13:02:13;;;;;;;11.57;8.43;;;6.90;99.90;;;;;;7363946;19;20040;-86
2023/01/28 13:05:03;;;;;;;9.25;8.25;;;8.20;99.90;;;;;;7361574;19;20022;-86
2023/01/28 13:07:55;;;;;;;10.98;8.88;;;9.70;99.90;;;;;;7361695;19;20008;-86
2023/01/28 13:10:36;;;;;;;10.02;8.82;;;10.90;99.90;;;;;;7362343;19;20026;-87
2023/01/28 13:13:04;;;;;;;11.18;7.95;;;11.50;99.90;;;;;;7365826;19;20015;-82
2023/01/28 13:15:31;;;;;;;10.48;9.15;;;12.20;99.90;;;;;;7364627;19;20019;-88
2023/01/28 13:18:02;;;;;;;11.05;9.10;;;12.50;99.90;;;;;;7361884;19;20007;-86
2023/01/28 13:20:45;;;;;;;12.88;10.98;;;12.30;99.90;;;;;;7363223;19;20035;-87
2023/01/28 13:24:04;;;;;;;11.95;10.50;;;12.70;89.30;;;;;;7362103;19;20018;-87
2023/01/28 13:30:28;;;;;;;13.35;10.95;;;12.40;85.50;;;;;;7363333;19;20082;-87
2023/01/28 13:33:00;;;;;;;14.98;10.85;;;11.90;96.00;;;;;;7361886;19;20039;-86
2023/01/28 13:35:36;;;;;;;11.65;10.27;;;12.00;92.00;;;;;;7354026;19;20108;-87
2023/01/28 13:38:20;;;;;;;12.57;10.90;;;12.70;90.90;;;;;;7361463;19;20029;-87
2023/01/28 13:41:05;;;;;;;12.13;10.07;;;12.90;84.60;;;;;;7365449;19;20015;-86
2023/01/28 13:43:36;;;;;;;13.82;10.32;;;13.00;87.90;;;;;;7361257;19;20018;-87
2023/01/28 13:46:10;;;;;;;14.20;9.82;;;13.50;93.20;;;;;;7364182;19;20027;-86
2023/01/28 13:49:03;;;;;;;13.80;10.73;;;12.20;90.00;;;;;;7365264;19;20025;-87
2023/01/28 13:51:32;;;;;;;12.02;9.68;;;12.10;95.40;;;;;;7361134;19;20494;-86
2023/01/28 13:54:06;;;;;;;12.70;9.50;;;11.40;99.90;;;;;;7363826;19;20019;-87
2023/01/28 13:56:43;;;;;;;12.38;9.60;;;10.80;99.90;;;;;;7360330;19;20602;-87
2023/01/28 13:59:38;;;;;;;12.18;9.57;;;9.90;99.90;;;;;;7360226;19;20027;-87
2023/01/28 14:02:19;;;;;;;12.45;9.68;;;9.20;99.90;;;;;;7363170;19;20026;-87
2023/01/28 14:04:56;;;;;;;12.65;9.30;;;9.20;99.90;;;;;;7357213;19;20022;-86
2023/01/28 14:07:37;;;;;;;9.75;8.23;;;9.20;99.90;;;;;;7360253;19;20026;-86
2023/01/28 14:10:18;;;;;;;10.80;8.52;;;9.10;99.90;;;;;;7361734;19;20022;-86
2023/01/28 14:12:45;;;;;;;10.57;8.02;;;9.70;99.90;;;;;;7360329;19;20019;-87